sensor_id;sensor_type;location;lat;lon;timestamp;temperature;humidity
45549;DHT22;31270;48.328;10.096;2022-07-21T00:02:20;19.90;99.90
45549;DHT22;31270;48.328;10.096;2022-07-21T00:04:46;20.00;99.90
45549;DHT22;31270;48.328;10.096;2022-07-21T00:07:11;20.00;99.90
45549;DHT22;31270;48.328;10.096;2022-07-21T00:09:37;20.00;99.90
45549;DHT22;31270;48.328;10.096;2022-07-21T00:12:03;19.90;99.90
45549;DHT22;31270;48.328;10.096;2022-07-21T00:14:29;19.80;99.90
45549;DHT22;31270;48.328;10.096;2022-07-21T00:16:55;19.90;99.90
45549;DHT22;31270;48.328;10.096;2022-07-21T00:19:20;19.70;99.90
45549;DHT22;31270;48.328;10.096;2022-07-21T00:21:46;19.60;99.90
45549;DHT22;31270;48.328;10.096;2022-07-21T00:24:11;19.50;99.90
45549;DHT22;31270;48.328;10.096;2022-07-21T00:26:37;19.40;99.90
45549;DHT22;31270;48.328;10.096;2022-07-21T00:29:03;19.40;99.90
45549;DHT22;31270;48.328;10.096;2022-07-21T00:31:29;19.40;99.90
45549;DHT22;31270;48.328;10.096;2022-07-21T00:33:55;19.30;99.90
45549;DHT22;31270;48.328;10.096;2022-07-21T00:36:21;19.30;99.90
45549;DHT22;31270;48.328;10.096;2022-07-21T00:38:47;19.30;99.90
45549;DHT22;31270;48.328;10.096;2022-07-21T00:41:13;19.40;99.90
45549;DHT22;31270;48.328;10.096;2022-07-21T00:43:39;19.40;99.90
45549;DHT22;31270;48.328;10.096;2022-07-21T00:46:05;19.20;99.90
45549;DHT22;31270;48.328;10.096;2022-07-21T00:48:30;19.20;99.90
45549;DHT22;31270;48.328;10.096;2022-07-21T00:50:56;19.30;99.90
45549;DHT22;31270;48.328;10.096;2022-07-21T00:53:22;19.10;99.90
45549;DHT22;31270;48.328;10.096;2022-07-21T00:55:47;19.40;99.90
45549;DHT22;31270;48.328;10.096;2022-07-21T00:58:13;19.10;99.90
45549;DHT22;31270;48.328;10.096;2022-07-21T01:00:39;19.10;99.90
45549;DHT22;31270;48.328;10.096;2022-07-21T01:03:05;19.10;99.90
45549;DHT22;31270;48.328;10.096;2022-07-21T01:05:31;19.10;99.90
45549;DHT22;31270;48.328;10.096;2022-07-21T01:07:57;19.10;99.90
45549;DHT22;31270;48.328;10.096;2022-07-21T01:10:29;19.10;99.90
45549;DHT22;31270;48.328;10.096;2022-07-21T01:12:56;19.20;99.90
45549;DHT22;31270;48.328;10.096;2022-07-21T01:15:22;19.10;99.90
45549;DHT22;31270;48.328;10.096;2022-07-21T01:17:49;19.20;99.90
45549;DHT22;31270;48.328;10.096;2022-07-21T01:20:17;19.10;99.90
45549;DHT22;31270;48.328;10.096;2022-07-21T01:22:46;19.10;99.90
45549;DHT22;31270;48.328;10.096;2022-07-21T01:25:12;19.10;99.90
45549;DHT22;31270;48.328;10.096;2022-07-21T01:27:38;19.20;99.90
45549;DHT22;31270;48.328;10.096;2022-07-21T01:30:06;19.10;99.90
45549;DHT22;31270;48.328;10.096;2022-07-21T01:32:34;19.20;99.90
45549;DHT22;31270;48.328;10.096;2022-07-21T01:35:01;19.20;99.90
45549;DHT22;31270;48.328;10.096;2022-07-21T01:37:29;19.20;99.90
45549;DHT22;31270;48.328;10.096;2022-07-21T01:39:55;19.20;99.90
45549;DHT22;31270;48.328;10.096;2022-07-21T01:42:39;19.20;99.90
45549;DHT22;31270;48.328;10.096;2022-07-21T01:45:05;19.20;99.90
45549;DHT22;31270;48.328;10.096;2022-07-21T01:47:32;19.20;99.90
45549;DHT22;31270;48.328;10.096;2022-07-21T01:49:58;19.20;99.90
45549;DHT22;31270;48.328;10.096;2022-07-21T01:52:23;19.30;99.90
45549;DHT22;31270;48.328;10.096;2022-07-21T01:54:49;19.20;99.90
45549;DHT22;31270;48.328;10.096;2022-07-21T01:57:15;19.30;99.90
45549;DHT22;31270;48.328;10.096;2022-07-21T01:59:41;19.00;99.90
45549;DHT22;31270;48.328;10.096;2022-07-21T02:02:06;19.20;99.90
45549;DHT22;31270;48.328;10.096;2022-07-21T02:04:32;19.10;99.90
45549;DHT22;31270;48.328;10.096;2022-07-21T02:07:00;19.10;99.90
45549;DHT22;31270;48.328;10.096;2022-07-21T02:09:26;19.20;99.90
45549;DHT22;31270;48.328;10.096;2022-07-21T02:11:52;19.00;99.90
45549;DHT22;31270;48.328;10.096;2022-07-21T02:14:17;19.10;99.90
45549;DHT22;31270;48.328;10.096;2022-07-21T02:16:43;19.10;99.90
45549;DHT22;31270;48.328;10.096;2022-07-21T02:19:09;19.00;99.90
45549;DHT22;31270;48.328;10.096;2022-07-21T02:21:35;19.10;99.90
45549;DHT22;31270;48.328;10.096;2022-07-21T02:24:00;19.00;99.90
45549;DHT22;31270;48.328;10.096;2022-07-21T02:26:26;19.00;99.90
45549;DHT22;31270;48.328;10.096;2022-07-21T02:28:52;19.00;99.90
45549;DHT22;31270;48.328;10.096;2022-07-21T02:31:17;19.00;99.90
45549;DHT22;31270;48.328;10.096;2022-07-21T02:33:43;19.00;99.90
45549;DHT22;31270;48.328;10.096;2022-07-21T02:36:09;19.00;99.90
45549;DHT22;31270;48.328;10.096;2022-07-21T02:38:34;19.10;99.90
45549;DHT22;31270;48.328;10.096;2022-07-21T02:41:00;19.10;99.90
45549;DHT22;31270;48.328;10.096;2022-07-21T02:43:26;19.10;99.90
45549;DHT22;31270;48.328;10.096;2022-07-21T02:45:51;19.10;99.90
45549;DHT22;31270;48.328;10.096;2022-07-21T02:48:18;19.10;99.90
45549;DHT22;31270;48.328;10.096;2022-07-21T02:50:44;19.30;99.90
45549;DHT22;31270;48.328;10.096;2022-07-21T02:53:12;19.10;99.90
45549;DHT22;31270;48.328;10.096;2022-07-21T02:55:38;19.20;99.90
45549;DHT22;31270;48.328;10.096;2022-07-21T02:58:11;19.30;99.90
45549;DHT22;31270;48.328;10.096;2022-07-21T03:03:09;19.10;99.90
45549;DHT22;31270;48.328;10.096;2022-07-21T03:05:36;19.20;99.90
45549;DHT22;31270;48.328;10.096;2022-07-21T03:08:03;19.20;99.90
45549;DHT22;31270;48.328;10.096;2022-07-21T03:10:29;19.30;99.90
45549;DHT22;31270;48.328;10.096;2022-07-21T03:12:55;19.30;99.90
45549;DHT22;31270;48.328;10.096;2022-07-21T03:15:21;19.30;99.90
45549;DHT22;31270;48.328;10.096;2022-07-21T03:17:47;19.40;99.90
45549;DHT22;31270;48.328;10.096;2022-07-21T03:20:12;19.50;99.90
45549;DHT22;31270;48.328;10.096;2022-07-21T03:22:38;19.30;99.90
45549;DHT22;31270;48.328;10.096;2022-07-21T03:25:05;19.40;99.90
45549;DHT22;31270;48.328;10.096;2022-07-21T03:27:30;19.40;99.90
45549;DHT22;31270;48.328;10.096;2022-07-21T03:29:56;19.40;99.90
45549;DHT22;31270;48.328;10.096;2022-07-21T03:32:22;19.50;99.90
45549;DHT22;31270;48.328;10.096;2022-07-21T03:34:47;19.40;99.90
45549;DHT22;31270;48.328;10.096;2022-07-21T03:37:13;19.50;99.90
45549;DHT22;31270;48.328;10.096;2022-07-21T03:39:39;19.50;99.90
45549;DHT22;31270;48.328;10.096;2022-07-21T03:42:04;19.50;99.90
45549;DHT22;31270;48.328;10.096;2022-07-21T03:44:30;19.50;99.90
45549;DHT22;31270;48.328;10.096;2022-07-21T03:46:56;19.50;99.90
45549;DHT22;31270;48.328;10.096;2022-07-21T03:49:24;19.40;99.90
45549;DHT22;31270;48.328;10.096;2022-07-21T03:51:50;19.40;99.90
45549;DHT22;31270;48.328;10.096;2022-07-21T03:54:16;19.40;99.90
45549;DHT22;31270;48.328;10.096;2022-07-21T03:56:41;19.40;99.90
45549;DHT22;31270;48.328;10.096;2022-07-21T03:59:07;19.40;99.90
45549;DHT22;31270;48.328;10.096;2022-07-21T04:01:33;19.40;99.90
45549;DHT22;31270;48.328;10.096;2022-07-21T04:03:58;19.50;99.90
45549;DHT22;31270;48.328;10.096;2022-07-21T04:06:24;19.50;99.90
45549;DHT22;31270;48.328;10.096;2022-07-21T04:08:49;19.50;99.90
45549;DHT22;31270;48.328;10.096;2022-07-21T04:11:15;19.50;99.90
45549;DHT22;31270;48.328;10.096;2022-07-21T04:13:40;19.60;99.90
45549;DHT22;31270;48.328;10.096;2022-07-21T04:16:06;19.50;99.90
45549;DHT22;31270;48.328;10.096;2022-07-21T04:18:32;19.50;99.90
45549;DHT22;31270;48.328;10.096;2022-07-21T04:20:57;19.50;99.90
45549;DHT22;31270;48.328;10.096;2022-07-21T04:23:23;19.40;99.90
45549;DHT22;31270;48.328;10.096;2022-07-21T04:25:49;19.50;99.90
45549;DHT22;31270;48.328;10.096;2022-07-21T04:28:14;19.40;99.90
45549;DHT22;31270;48.328;10.096;2022-07-21T04:30:40;19.60;99.90
45549;DHT22;31270;48.328;10.096;2022-07-21T04:33:05;19.40;99.90
45549;DHT22;31270;48.328;10.096;2022-07-21T04:35:32;19.50;99.90
45549;DHT22;31270;48.328;10.096;2022-07-21T04:37:57;19.40;99.90
45549;DHT22;31270;48.328;10.096;2022-07-21T04:40:23;19.40;99.90
45549;DHT22;31270;48.328;10.096;2022-07-21T04:42:49;19.50;99.90
45549;DHT22;31270;48.328;10.096;2022-07-21T04:45:15;19.50;99.90
45549;DHT22;31270;48.328;10.096;2022-07-21T04:47:50;19.60;99.90
45549;DHT22;31270;48.328;10.096;2022-07-21T04:50:22;19.50;99.90
45549;DHT22;31270;48.328;10.096;2022-07-21T04:52:48;19.60;99.90
45549;DHT22;31270;48.328;10.096;2022-07-21T04:55:15;19.60;99.90
45549;DHT22;31270;48.328;10.096;2022-07-21T04:57:46;19.60;99.90
45549;DHT22;31270;48.328;10.096;2022-07-21T05:00:18;19.60;99.90
45549;DHT22;31270;48.328;10.096;2022-07-21T05:02:45;19.60;99.90
45549;DHT22;31270;48.328;10.096;2022-07-21T05:05:11;19.50;99.90
45549;DHT22;31270;48.328;10.096;2022-07-21T05:07:37;19.60;99.90
45549;DHT22;31270;48.328;10.096;2022-07-21T05:10:11;19.60;99.90
45549;DHT22;31270;48.328;10.096;2022-07-21T05:12:37;19.60;99.90
45549;DHT22;31270;48.328;10.096;2022-07-21T05:15:05;19.70;99.90
45549;DHT22;31270;48.328;10.096;2022-07-21T05:17:32;19.80;99.90
45549;DHT22;31270;48.328;10.096;2022-07-21T05:19:59;19.80;99.90
45549;DHT22;31270;48.328;10.096;2022-07-21T05:22:25;19.80;99.90
45549;DHT22;31270;48.328;10.096;2022-07-21T05:24:51;20.00;99.90
45549;DHT22;31270;48.328;10.096;2022-07-21T05:27:16;19.90;99.90
45549;DHT22;31270;48.328;10.096;2022-07-21T05:29:42;19.90;99.90
45549;DHT22;31270;48.328;10.096;2022-07-21T05:32:08;20.00;99.90
45549;DHT22;31270;48.328;10.096;2022-07-21T05:34:33;19.90;99.90
45549;DHT22;31270;48.328;10.096;2022-07-21T05:36:59;19.90;99.90
45549;DHT22;31270;48.328;10.096;2022-07-21T05:39:25;19.90;99.90
45549;DHT22;31270;48.328;10.096;2022-07-21T05:41:50;20.00;99.90
45549;DHT22;31270;48.328;10.096;2022-07-21T05:44:16;20.00;99.90
45549;DHT22;31270;48.328;10.096;2022-07-21T05:46:42;20.00;99.90
45549;DHT22;31270;48.328;10.096;2022-07-21T05:49:07;20.00;99.90
45549;DHT22;31270;48.328;10.096;2022-07-21T05:51:33;20.00;99.90
45549;DHT22;31270;48.328;10.096;2022-07-21T05:53:58;20.10;99.90
45549;DHT22;31270;48.328;10.096;2022-07-21T05:56:24;20.10;99.90
45549;DHT22;31270;48.328;10.096;2022-07-21T05:58:49;20.30;99.90
45549;DHT22;31270;48.328;10.096;2022-07-21T06:01:15;20.20;99.90
45549;DHT22;31270;48.328;10.096;2022-07-21T06:03:48;20.20;99.90
45549;DHT22;31270;48.328;10.096;2022-07-21T06:06:16;20.20;99.90
45549;DHT22;31270;48.328;10.096;2022-07-21T06:08:43;20.20;99.90
45549;DHT22;31270;48.328;10.096;2022-07-21T06:11:11;20.40;99.90
45549;DHT22;31270;48.328;10.096;2022-07-21T06:13:38;20.30;99.90
45549;DHT22;31270;48.328;10.096;2022-07-21T06:16:04;20.40;99.90
45549;DHT22;31270;48.328;10.096;2022-07-21T06:18:30;20.40;99.90
45549;DHT22;31270;48.328;10.096;2022-07-21T06:20:55;20.40;99.90
45549;DHT22;31270;48.328;10.096;2022-07-21T06:23:22;20.50;99.90
45549;DHT22;31270;48.328;10.096;2022-07-21T06:25:47;20.50;99.90
45549;DHT22;31270;48.328;10.096;2022-07-21T06:28:14;20.50;99.90
45549;DHT22;31270;48.328;10.096;2022-07-21T06:30:40;20.60;99.90
45549;DHT22;31270;48.328;10.096;2022-07-21T06:33:05;20.70;99.90
45549;DHT22;31270;48.328;10.096;2022-07-21T06:35:31;20.70;99.90
45549;DHT22;31270;48.328;10.096;2022-07-21T06:37:57;20.90;99.90
45549;DHT22;31270;48.328;10.096;2022-07-21T06:40:22;21.00;99.90
45549;DHT22;31270;48.328;10.096;2022-07-21T06:42:48;21.10;99.90
45549;DHT22;31270;48.328;10.096;2022-07-21T06:45:14;21.20;99.90
45549;DHT22;31270;48.328;10.096;2022-07-21T06:47:40;21.20;99.90
45549;DHT22;31270;48.328;10.096;2022-07-21T06:50:07;21.30;99.90
45549;DHT22;31270;48.328;10.096;2022-07-21T06:52:33;21.40;99.90
45549;DHT22;31270;48.328;10.096;2022-07-21T06:55:00;21.40;99.90
45549;DHT22;31270;48.328;10.096;2022-07-21T06:57:26;21.40;99.90
45549;DHT22;31270;48.328;10.096;2022-07-21T06:59:51;21.40;99.90
45549;DHT22;31270;48.328;10.096;2022-07-21T07:02:17;21.50;99.90
45549;DHT22;31270;48.328;10.096;2022-07-21T07:04:42;21.50;99.90
45549;DHT22;31270;48.328;10.096;2022-07-21T07:07:11;21.60;99.90
45549;DHT22;31270;48.328;10.096;2022-07-21T07:09:37;21.70;99.90
45549;DHT22;31270;48.328;10.096;2022-07-21T07:12:03;21.90;99.90
45549;DHT22;31270;48.328;10.096;2022-07-21T07:14:33;22.00;99.90
45549;DHT22;31270;48.328;10.096;2022-07-21T07:17:00;22.10;99.90
45549;DHT22;31270;48.328;10.096;2022-07-21T07:19:26;22.20;99.90
45549;DHT22;31270;48.328;10.096;2022-07-21T07:21:51;22.30;99.90
45549;DHT22;31270;48.328;10.096;2022-07-21T07:24:17;22.30;99.90
45549;DHT22;31270;48.328;10.096;2022-07-21T07:26:43;22.30;99.90
45549;DHT22;31270;48.328;10.096;2022-07-21T07:29:08;22.50;99.90
45549;DHT22;31270;48.328;10.096;2022-07-21T07:31:35;22.70;99.90
45549;DHT22;31270;48.328;10.096;2022-07-21T07:34:00;22.70;99.90
45549;DHT22;31270;48.328;10.096;2022-07-21T07:36:27;22.70;99.90
45549;DHT22;31270;48.328;10.096;2022-07-21T07:38:54;23.00;99.90
45549;DHT22;31270;48.328;10.096;2022-07-21T07:41:20;23.00;99.90
45549;DHT22;31270;48.328;10.096;2022-07-21T07:43:46;23.10;99.90
45549;DHT22;31270;48.328;10.096;2022-07-21T07:46:12;23.20;99.90
45549;DHT22;31270;48.328;10.096;2022-07-21T07:48:39;23.10;99.90
45549;DHT22;31270;48.328;10.096;2022-07-21T07:51:09;23.10;99.90
45549;DHT22;31270;48.328;10.096;2022-07-21T07:53:35;23.10;99.90
45549;DHT22;31270;48.328;10.096;2022-07-21T07:56:02;23.10;99.90
45549;DHT22;31270;48.328;10.096;2022-07-21T07:58:28;23.20;99.90
45549;DHT22;31270;48.328;10.096;2022-07-21T08:00:54;23.20;99.90
45549;DHT22;31270;48.328;10.096;2022-07-21T08:03:20;23.30;99.90
45549;DHT22;31270;48.328;10.096;2022-07-21T08:05:46;23.30;99.90
45549;DHT22;31270;48.328;10.096;2022-07-21T08:08:13;23.40;99.90
45549;DHT22;31270;48.328;10.096;2022-07-21T08:10:38;23.40;99.90
45549;DHT22;31270;48.328;10.096;2022-07-21T08:13:04;23.60;99.90
45549;DHT22;31270;48.328;10.096;2022-07-21T08:15:30;23.90;99.90
45549;DHT22;31270;48.328;10.096;2022-07-21T08:17:55;23.90;99.90
45549;DHT22;31270;48.328;10.096;2022-07-21T08:20:21;24.00;99.90
45549;DHT22;31270;48.328;10.096;2022-07-21T08:22:47;24.10;99.90
45549;DHT22;31270;48.328;10.096;2022-07-21T08:25:12;24.30;99.90
45549;DHT22;31270;48.328;10.096;2022-07-21T08:27:38;24.40;99.90
45549;DHT22;31270;48.328;10.096;2022-07-21T08:30:06;24.50;99.90
45549;DHT22;31270;48.328;10.096;2022-07-21T08:32:31;24.80;99.90
45549;DHT22;31270;48.328;10.096;2022-07-21T08:34:57;25.00;99.90
45549;DHT22;31270;48.328;10.096;2022-07-21T08:37:22;25.20;99.90
45549;DHT22;31270;48.328;10.096;2022-07-21T08:39:48;25.30;99.90
45549;DHT22;31270;48.328;10.096;2022-07-21T08:42:14;25.40;99.90
45549;DHT22;31270;48.328;10.096;2022-07-21T08:44:41;25.60;99.90
45549;DHT22;31270;48.328;10.096;2022-07-21T08:47:06;25.50;99.90
45549;DHT22;31270;48.328;10.096;2022-07-21T08:49:35;25.60;99.90
45549;DHT22;31270;48.328;10.096;2022-07-21T08:52:02;25.90;99.90
45549;DHT22;31270;48.328;10.096;2022-07-21T08:54:28;26.10;99.90
45549;DHT22;31270;48.328;10.096;2022-07-21T08:56:54;26.20;99.90
45549;DHT22;31270;48.328;10.096;2022-07-21T08:59:20;26.40;99.90
45549;DHT22;31270;48.328;10.096;2022-07-21T09:01:48;26.50;99.90
45549;DHT22;31270;48.328;10.096;2022-07-21T09:04:26;26.20;99.90
45549;DHT22;31270;48.328;10.096;2022-07-21T09:06:57;26.10;99.90
45549;DHT22;31270;48.328;10.096;2022-07-21T09:09:23;26.20;99.90
45549;DHT22;31270;48.328;10.096;2022-07-21T09:11:50;26.40;99.90
45549;DHT22;31270;48.328;10.096;2022-07-21T09:14:19;26.50;99.90
45549;DHT22;31270;48.328;10.096;2022-07-21T09:16:49;26.60;99.90
45549;DHT22;31270;48.328;10.096;2022-07-21T09:19:18;26.70;99.90
45549;DHT22;31270;48.328;10.096;2022-07-21T09:21:44;26.90;99.90
45549;DHT22;31270;48.328;10.096;2022-07-21T09:24:16;26.80;99.90
45549;DHT22;31270;48.328;10.096;2022-07-21T09:27:10;26.90;99.90
45549;DHT22;31270;48.328;10.096;2022-07-21T09:32:25;27.70;99.90
45549;DHT22;31270;48.328;10.096;2022-07-21T09:37:24;28.50;99.90
45549;DHT22;31270;48.328;10.096;2022-07-21T09:39:58;28.80;99.90
45549;DHT22;31270;48.328;10.096;2022-07-21T09:42:32;29.10;99.90
45549;DHT22;31270;48.328;10.096;2022-07-21T09:45:07;29.20;99.90
45549;DHT22;31270;48.328;10.096;2022-07-21T09:47:34;29.50;99.90
45549;DHT22;31270;48.328;10.096;2022-07-21T09:50:01;29.90;99.90
45549;DHT22;31270;48.328;10.096;2022-07-21T09:52:35;29.90;99.90
45549;DHT22;31270;48.328;10.096;2022-07-21T09:55:04;30.20;99.90
45549;DHT22;31270;48.328;10.096;2022-07-21T09:57:30;30.40;99.90
45549;DHT22;31270;48.328;10.096;2022-07-21T09:59:57;30.60;99.90
45549;DHT22;31270;48.328;10.096;2022-07-21T10:02:28;30.70;99.90
45549;DHT22;31270;48.328;10.096;2022-07-21T10:04:58;30.70;99.90
45549;DHT22;31270;48.328;10.096;2022-07-21T10:07:25;30.60;99.90
45549;DHT22;31270;48.328;10.096;2022-07-21T10:09:51;30.40;99.90
45549;DHT22;31270;48.328;10.096;2022-07-21T10:12:17;30.40;99.90
45549;DHT22;31270;48.328;10.096;2022-07-21T10:14:43;30.40;99.90
45549;DHT22;31270;48.328;10.096;2022-07-21T10:17:09;30.30;99.90
45549;DHT22;31270;48.328;10.096;2022-07-21T10:19:42;30.40;99.90
45549;DHT22;31270;48.328;10.096;2022-07-21T10:22:20;30.30;99.90
45549;DHT22;31270;48.328;10.096;2022-07-21T10:24:49;30.20;99.90
45549;DHT22;31270;48.328;10.096;2022-07-21T10:27:14;30.10;99.90
45549;DHT22;31270;48.328;10.096;2022-07-21T10:30:01;30.00;99.90
45549;DHT22;31270;48.328;10.096;2022-07-21T10:32:39;29.60;99.90
45549;DHT22;31270;48.328;10.096;2022-07-21T10:35:28;29.50;99.90
45549;DHT22;31270;48.328;10.096;2022-07-21T10:37:54;29.30;99.90
45549;DHT22;31270;48.328;10.096;2022-07-21T10:45:37;29.60;99.90
45549;DHT22;31270;48.328;10.096;2022-07-21T10:48:08;29.50;99.90
45549;DHT22;31270;48.328;10.096;2022-07-21T10:50:39;29.40;99.90
45549;DHT22;31270;48.328;10.096;2022-07-21T10:53:13;29.40;99.90
45549;DHT22;31270;48.328;10.096;2022-07-21T10:55:46;29.40;99.90
45549;DHT22;31270;48.328;10.096;2022-07-21T10:58:15;29.40;99.90
45549;DHT22;31270;48.328;10.096;2022-07-21T11:00:45;29.50;99.90
45549;DHT22;31270;48.328;10.096;2022-07-21T11:08:38;29.70;99.90
45549;DHT22;31270;48.328;10.096;2022-07-21T11:19:44;29.60;99.90
45549;DHT22;31270;48.328;10.096;2022-07-21T11:22:23;29.40;99.90
45549;DHT22;31270;48.328;10.096;2022-07-21T11:24:51;29.40;99.90
45549;DHT22;31270;48.328;10.096;2022-07-21T11:27:21;29.40;99.90
45549;DHT22;31270;48.328;10.096;2022-07-21T11:29:49;29.50;99.90
45549;DHT22;31270;48.328;10.096;2022-07-21T11:32:16;29.20;99.90
45549;DHT22;31270;48.328;10.096;2022-07-21T11:39:57;29.40;99.90
45549;DHT22;31270;48.328;10.096;2022-07-21T11:42:24;29.20;99.90
45549;DHT22;31270;48.328;10.096;2022-07-21T11:44:51;29.20;99.90
45549;DHT22;31270;48.328;10.096;2022-07-21T11:47:16;29.00;99.90
45549;DHT22;31270;48.328;10.096;2022-07-21T11:49:43;29.10;99.90
45549;DHT22;31270;48.328;10.096;2022-07-21T11:52:14;29.10;99.90
45549;DHT22;31270;48.328;10.096;2022-07-21T11:54:50;29.00;99.90
45549;DHT22;31270;48.328;10.096;2022-07-21T11:57:17;29.10;99.90
45549;DHT22;31270;48.328;10.096;2022-07-21T11:59:44;29.20;99.90
45549;DHT22;31270;48.328;10.096;2022-07-21T12:02:15;29.40;99.90
45549;DHT22;31270;48.328;10.096;2022-07-21T12:04:51;29.20;99.90
45549;DHT22;31270;48.328;10.096;2022-07-21T12:07:24;29.40;99.90
45549;DHT22;31270;48.328;10.096;2022-07-21T12:09:55;29.80;98.70
45549;DHT22;31270;48.328;10.096;2022-07-21T12:15:13;29.90;99.90
45549;DHT22;31270;48.328;10.096;2022-07-21T12:17:42;29.90;98.60
45549;DHT22;31270;48.328;10.096;2022-07-21T12:20:09;30.00;99.20
45549;DHT22;31270;48.328;10.096;2022-07-21T12:22:38;30.20;99.70
45549;DHT22;31270;48.328;10.096;2022-07-21T12:25:05;30.40;99.70
45549;DHT22;31270;48.328;10.096;2022-07-21T12:27:34;30.70;98.90
45549;DHT22;31270;48.328;10.096;2022-07-21T12:30:00;30.60;97.90
45549;DHT22;31270;48.328;10.096;2022-07-21T12:32:48;30.50;97.90
45549;DHT22;31270;48.328;10.096;2022-07-21T12:35:26;30.40;96.00
45549;DHT22;31270;48.328;10.096;2022-07-21T12:38:17;30.40;97.20
45549;DHT22;31270;48.328;10.096;2022-07-21T12:40:47;30.60;95.80
45549;DHT22;31270;48.328;10.096;2022-07-21T12:43:16;30.80;95.70
45549;DHT22;31270;48.328;10.096;2022-07-21T12:45:49;30.90;97.60
45549;DHT22;31270;48.328;10.096;2022-07-21T12:48:20;31.00;96.90
45549;DHT22;31270;48.328;10.096;2022-07-21T12:51:02;31.30;96.20
45549;DHT22;31270;48.328;10.096;2022-07-21T12:53:29;31.70;96.80
45549;DHT22;31270;48.328;10.096;2022-07-21T12:55:55;31.70;96.20
45549;DHT22;31270;48.328;10.096;2022-07-21T12:58:21;31.60;94.50
45549;DHT22;31270;48.328;10.096;2022-07-21T13:00:47;31.90;96.10
45549;DHT22;31270;48.328;10.096;2022-07-21T13:03:13;32.10;95.80
45549;DHT22;31270;48.328;10.096;2022-07-21T13:05:39;32.20;94.70
45549;DHT22;31270;48.328;10.096;2022-07-21T13:08:05;32.30;95.70
45549;DHT22;31270;48.328;10.096;2022-07-21T13:10:30;32.10;95.90
45549;DHT22;31270;48.328;10.096;2022-07-21T13:12:56;32.20;96.50
45549;DHT22;31270;48.328;10.096;2022-07-21T13:15:22;32.40;94.40
45549;DHT22;31270;48.328;10.096;2022-07-21T13:17:47;32.00;92.30
45549;DHT22;31270;48.328;10.096;2022-07-21T13:20:13;32.30;92.60
45549;DHT22;31270;48.328;10.096;2022-07-21T13:22:39;32.50;95.50
45549;DHT22;31270;48.328;10.096;2022-07-21T13:25:06;32.60;94.70
45549;DHT22;31270;48.328;10.096;2022-07-21T13:27:32;32.80;93.00
45549;DHT22;31270;48.328;10.096;2022-07-21T13:29:59;32.80;94.00
45549;DHT22;31270;48.328;10.096;2022-07-21T13:32:24;33.00;93.60
45549;DHT22;31270;48.328;10.096;2022-07-21T13:34:50;32.90;92.20
45549;DHT22;31270;48.328;10.096;2022-07-21T13:37:16;33.40;94.40
45549;DHT22;31270;48.328;10.096;2022-07-21T13:39:41;33.40;93.70
45549;DHT22;31270;48.328;10.096;2022-07-21T13:42:07;33.50;93.50
45549;DHT22;31270;48.328;10.096;2022-07-21T13:44:34;33.60;93.30
45549;DHT22;31270;48.328;10.096;2022-07-21T13:46:59;33.50;92.50
45549;DHT22;31270;48.328;10.096;2022-07-21T13:49:25;33.60;92.70
45549;DHT22;31270;48.328;10.096;2022-07-21T13:51:51;33.40;93.50
45549;DHT22;31270;48.328;10.096;2022-07-21T13:54:16;33.40;91.40
45549;DHT22;31270;48.328;10.096;2022-07-21T13:56:42;33.70;91.80
45549;DHT22;31270;48.328;10.096;2022-07-21T13:59:08;33.30;91.30
45549;DHT22;31270;48.328;10.096;2022-07-21T14:01:33;33.10;91.40
45549;DHT22;31270;48.328;10.096;2022-07-21T14:03:59;33.20;92.30
45549;DHT22;31270;48.328;10.096;2022-07-21T14:06:24;32.70;91.10
45549;DHT22;31270;48.328;10.096;2022-07-21T14:08:50;32.70;91.40
45549;DHT22;31270;48.328;10.096;2022-07-21T14:11:16;32.90;91.40
45549;DHT22;31270;48.328;10.096;2022-07-21T14:13:42;32.90;91.70
45549;DHT22;31270;48.328;10.096;2022-07-21T14:16:08;33.00;91.40
45549;DHT22;31270;48.328;10.096;2022-07-21T14:18:34;33.30;91.20
45549;DHT22;31270;48.328;10.096;2022-07-21T14:20:59;33.30;88.80
45549;DHT22;31270;48.328;10.096;2022-07-21T14:23:25;32.90;88.30
45549;DHT22;31270;48.328;10.096;2022-07-21T14:25:52;32.50;88.90
45549;DHT22;31270;48.328;10.096;2022-07-21T14:28:18;32.20;90.90
45549;DHT22;31270;48.328;10.096;2022-07-21T14:30:43;32.30;90.80
45549;DHT22;31270;48.328;10.096;2022-07-21T14:33:09;32.40;90.00
45549;DHT22;31270;48.328;10.096;2022-07-21T14:35:35;32.30;89.20
45549;DHT22;31270;48.328;10.096;2022-07-21T14:38:01;32.30;88.60
45549;DHT22;31270;48.328;10.096;2022-07-21T14:40:27;32.40;90.60
45549;DHT22;31270;48.328;10.096;2022-07-21T14:42:52;32.40;90.70
45549;DHT22;31270;48.328;10.096;2022-07-21T14:45:19;32.30;89.80
45549;DHT22;31270;48.328;10.096;2022-07-21T14:47:45;32.40;89.50
45549;DHT22;31270;48.328;10.096;2022-07-21T14:50:15;32.50;90.50
45549;DHT22;31270;48.328;10.096;2022-07-21T14:52:41;32.50;89.20
45549;DHT22;31270;48.328;10.096;2022-07-21T14:55:08;32.50;90.10
45549;DHT22;31270;48.328;10.096;2022-07-21T14:57:34;32.90;90.30
45549;DHT22;31270;48.328;10.096;2022-07-21T15:00:04;32.60;89.50
45549;DHT22;31270;48.328;10.096;2022-07-21T15:02:30;32.40;90.70
45549;DHT22;31270;48.328;10.096;2022-07-21T15:04:56;32.20;89.30
45549;DHT22;31270;48.328;10.096;2022-07-21T15:07:22;32.20;87.40
45549;DHT22;31270;48.328;10.096;2022-07-21T15:09:47;32.10;89.50
45549;DHT22;31270;48.328;10.096;2022-07-21T15:12:13;32.10;90.10
45549;DHT22;31270;48.328;10.096;2022-07-21T15:14:39;32.10;89.90
45549;DHT22;31270;48.328;10.096;2022-07-21T15:17:05;32.10;90.10
45549;DHT22;31270;48.328;10.096;2022-07-21T15:19:31;32.00;89.00
45549;DHT22;31270;48.328;10.096;2022-07-21T15:21:56;32.00;89.50
45549;DHT22;31270;48.328;10.096;2022-07-21T15:24:22;32.00;89.20
45549;DHT22;31270;48.328;10.096;2022-07-21T15:26:48;32.00;89.50
45549;DHT22;31270;48.328;10.096;2022-07-21T15:29:15;32.00;89.40
45549;DHT22;31270;48.328;10.096;2022-07-21T15:31:40;31.90;90.30
45549;DHT22;31270;48.328;10.096;2022-07-21T15:34:07;31.70;88.90
45549;DHT22;31270;48.328;10.096;2022-07-21T15:36:32;31.60;88.10
45549;DHT22;31270;48.328;10.096;2022-07-21T15:38:58;31.40;85.90
45549;DHT22;31270;48.328;10.096;2022-07-21T15:41:25;31.10;89.20
45549;DHT22;31270;48.328;10.096;2022-07-21T15:43:51;30.90;89.90
45549;DHT22;31270;48.328;10.096;2022-07-21T15:46:16;30.70;90.20
45549;DHT22;31270;48.328;10.096;2022-07-21T15:48:42;30.60;90.20
45549;DHT22;31270;48.328;10.096;2022-07-21T15:51:08;30.60;90.80